createdAt,value
2018-12-16T00:00:43.727Z,64.99
2018-12-16T00:03:47.328Z,65.09
2018-12-16T00:06:51.162Z,65.13
2018-12-16T00:09:55.038Z,65.14
2018-12-16T00:12:58.716Z,65.42
2018-12-16T00:16:02.377Z,65.60
2018-12-16T00:19:08.091Z,65.36
2018-12-16T00:22:12.727Z,65.21
2018-12-16T00:25:18.413Z,65.51
2018-12-16T00:28:22.094Z,65.58
2018-12-16T00:31:26.656Z,65.58
2018-12-16T00:34:30.269Z,65.25
2018-12-16T00:37:34.923Z,65.08
2018-12-16T00:40:38.624Z,65.54
2018-12-16T00:43:42.503Z,65.72
2018-12-16T00:46:47.043Z,65.89
2018-12-16T00:49:50.817Z,65.70
2018-12-16T00:52:54.324Z,65.73
2018-12-16T00:55:58.071Z,66.00
2018-12-16T00:59:01.591Z,66.05
2018-12-16T01:02:05.456Z,66.01
2018-12-16T01:05:09.163Z,66.43
2018-12-16T01:08:12.811Z,66.42
2018-12-16T01:11:16.887Z,66.43
2018-12-16T01:14:20.481Z,65.93
2018-12-16T01:17:23.921Z,66.54
2018-12-16T01:20:27.591Z,66.46
2018-12-16T01:23:34.600Z,66.35
2018-12-16T01:26:38.205Z,65.65
2018-12-16T01:29:48.261Z,66.22
2018-12-16T01:32:52.867Z,66.00
2018-12-16T01:35:56.505Z,66.73
2018-12-16T01:39:00.120Z,65.90
2018-12-16T01:42:03.834Z,66.07
2018-12-16T01:45:07.476Z,66.15
2018-12-16T01:48:11.045Z,66.68
2018-12-16T01:51:14.637Z,66.46
2018-12-16T01:54:18.337Z,66.37
2018-12-16T01:57:21.897Z,66.25
2018-12-16T02:00:25.455Z,66.56
2018-12-16T02:03:29.147Z,66.31
2018-12-16T02:06:32.860Z,66.78
2018-12-16T02:09:36.585Z,66.62
2018-12-16T02:12:40.129Z,66.14
2018-12-16T02:15:43.707Z,66.50
2018-12-16T02:18:47.195Z,66.54
2018-12-16T02:21:50.683Z,66.70
2018-12-16T02:24:54.271Z,67.03
2018-12-16T02:27:58.144Z,66.75
2018-12-16T02:31:01.752Z,66.79
2018-12-16T02:34:05.247Z,67.33
2018-12-16T02:37:08.827Z,66.71
2018-12-16T02:40:12.374Z,66.64
2018-12-16T02:43:15.973Z,66.86
2018-12-16T02:46:19.574Z,66.77
2018-12-16T02:49:23.076Z,66.88
2018-12-16T02:52:26.619Z,66.64
2018-12-16T02:55:30.133Z,66.71
2018-12-16T02:58:33.723Z,67.02
2018-12-16T03:01:37.435Z,66.57
2018-12-16T03:04:40.955Z,67.45
2018-12-16T03:07:44.468Z,67.06
2018-12-16T03:10:47.957Z,66.95
2018-12-16T03:13:51.606Z,66.72
2018-12-16T03:16:55.134Z,67.03
2018-12-16T03:19:58.688Z,66.81
2018-12-16T03:23:02.358Z,67.23
2018-12-16T03:26:05.944Z,67.48
2018-12-16T03:29:09.378Z,67.06
2018-12-16T03:32:12.882Z,67.04
2018-12-16T03:35:16.801Z,67.37
2018-12-16T03:38:20.465Z,67.36
2018-12-16T03:41:23.985Z,67.16
2018-12-16T03:44:27.490Z,67.18
2018-12-16T03:47:31.104Z,67.11
2018-12-16T03:50:34.772Z,67.18
2018-12-16T03:53:38.321Z,67.51
2018-12-16T03:56:41.882Z,67.33
2018-12-16T03:59:45.388Z,67.69
2018-12-16T04:02:48.836Z,67.25
2018-12-16T04:05:52.369Z,67.19
2018-12-16T04:08:55.916Z,67.99
2018-12-16T04:11:59.497Z,68.01
2018-12-16T04:15:03.047Z,68.84
2018-12-16T04:18:06.732Z,70.62
2018-12-16T04:21:10.394Z,72.53
2018-12-16T04:24:13.852Z,73.24
2018-12-16T04:27:17.442Z,74.35
2018-12-16T04:30:20.909Z,76.58
2018-12-16T04:33:24.550Z,78.38
2018-12-16T04:36:28.118Z,79.86
2018-12-16T04:39:31.904Z,80.34
2018-12-16T04:42:35.545Z,81.91
2018-12-16T04:45:39.137Z,82.48
2018-12-16T04:48:42.664Z,84.12
2018-12-16T04:51:46.152Z,83.01
2018-12-16T04:54:49.635Z,84.44
2018-12-16T04:57:53.164Z,85.63
2018-12-16T05:00:56.582Z,85.62
2018-12-16T05:04:00.005Z,86.39
2018-12-16T05:07:04.680Z,85.95
2018-12-16T05:10:19.375Z,85.50
2018-12-16T05:13:22.881Z,85.78
2018-12-16T05:16:26.421Z,87.34
2018-12-16T05:19:29.950Z,88.32
2018-12-16T05:22:33.535Z,88.37
2018-12-16T05:25:37.159Z,88.79
2018-12-16T05:28:40.781Z,89.30
2018-12-16T05:31:44.355Z,90.32
2018-12-16T05:34:47.927Z,90.21
2018-12-16T05:37:51.409Z,90.64
2018-12-16T05:40:54.880Z,90.32
2018-12-16T05:43:58.447Z,90.92
2018-12-16T05:47:01.931Z,90.93
2018-12-16T05:50:06.443Z,91.22
2018-12-16T05:53:10.624Z,92.35
2018-12-16T05:56:15.538Z,92.08
2018-12-16T05:59:19.148Z,91.71
2018-12-16T06:02:22.742Z,91.71
2018-12-16T06:05:28.170Z,92.06
2018-12-16T06:08:31.762Z,91.10
2018-12-16T06:11:35.326Z,92.31
2018-12-16T06:14:38.864Z,92.98
2018-12-16T06:17:42.316Z,92.67
2018-12-16T06:20:46.770Z,93.01
2018-12-16T06:23:55.473Z,92.02
2018-12-16T06:26:53.989Z,92.21
2018-12-16T06:29:57.564Z,93.15
2018-12-16T06:33:01.155Z,92.41
2018-12-16T06:36:04.645Z,92.13
2018-12-16T06:39:08.101Z,92.64
2018-12-16T06:42:11.915Z,92.26
2018-12-16T06:45:15.436Z,91.57
2018-12-16T06:48:18.994Z,93.00
2018-12-16T06:51:22.507Z,91.53
2018-12-16T06:54:26.239Z,92.49
2018-12-16T06:57:29.686Z,92.52
2018-12-16T07:00:33.046Z,91.80
2018-12-16T07:03:37.155Z,92.24
2018-12-16T07:06:40.706Z,92.08
2018-12-16T07:09:44.337Z,92.66
2018-12-16T07:12:47.973Z,92.22
2018-12-16T07:15:51.537Z,92.09
2018-12-16T07:18:55.726Z,91.95
2018-12-16T07:21:59.272Z,91.05
2018-12-16T07:25:03.070Z,90.89
2018-12-16T07:28:06.801Z,90.96
2018-12-16T07:31:10.436Z,91.80
2018-12-16T07:34:14.126Z,92.43
2018-12-16T07:37:19.192Z,92.39
2018-12-16T07:40:22.012Z,92.15
2018-12-16T07:43:25.740Z,91.53
2018-12-16T07:46:29.672Z,92.13
2018-12-16T07:49:33.327Z,92.14
2018-12-16T07:52:37.167Z,91.45
2018-12-16T07:55:40.898Z,92.45
2018-12-16T07:58:44.683Z,91.92
2018-12-16T08:01:48.305Z,90.79
2018-12-16T08:04:51.903Z,91.87
2018-12-16T08:07:55.554Z,92.38
2018-12-16T08:10:59.070Z,92.84
2018-12-16T08:14:02.644Z,93.28
2018-12-16T08:17:06.413Z,92.54
2018-12-16T08:20:10.197Z,92.55
2018-12-16T08:23:13.699Z,92.73
2018-12-16T08:26:17.304Z,92.71
2018-12-16T08:29:20.931Z,92.61
2018-12-16T08:32:24.412Z,91.88
2018-12-16T08:35:28.073Z,92.04
2018-12-16T08:38:31.622Z,91.84
2018-12-16T08:41:35.404Z,91.75
2018-12-16T08:44:39.029Z,92.17
2018-12-16T08:47:42.532Z,92.47
2018-12-16T08:50:46.112Z,92.05
2018-12-16T08:53:50.153Z,92.38
2018-12-16T08:56:56.091Z,92.08
2018-12-16T08:59:59.561Z,92.89
2018-12-16T09:03:03.187Z,92.86
2018-12-16T09:06:06.721Z,91.44
2018-12-16T09:09:10.365Z,92.03
2018-12-16T09:12:13.916Z,91.72
2018-12-16T09:15:17.546Z,91.74
2018-12-16T09:18:22.122Z,91.93
2018-12-16T09:21:25.795Z,92.83
2018-12-16T09:24:29.484Z,92.71
2018-12-16T09:27:33.047Z,93.14
2018-12-16T09:30:36.543Z,93.03
2018-12-16T09:33:40.134Z,93.45
2018-12-16T09:36:43.716Z,92.77
2018-12-16T09:39:47.293Z,91.90
2018-12-16T09:42:50.948Z,92.53
2018-12-16T09:45:54.557Z,92.66
2018-12-16T09:48:58.059Z,92.06
2018-12-16T09:52:01.692Z,92.94
2018-12-16T09:55:06.552Z,92.34
2018-12-16T09:58:10.366Z,92.08
2018-12-16T10:01:13.990Z,92.42
2018-12-16T10:04:17.366Z,92.65
2018-12-16T10:07:21.002Z,92.55
2018-12-16T10:10:24.472Z,92.27
2018-12-16T10:13:27.975Z,92.92
2018-12-16T10:16:32.710Z,92.53
2018-12-16T10:19:36.180Z,93.23
2018-12-16T10:22:40.530Z,92.75
2018-12-16T10:25:45.162Z,92.91
2018-12-16T10:28:48.767Z,92.72
2018-12-16T10:31:52.365Z,92.91
2018-12-16T10:34:56.002Z,93.13
2018-12-16T10:37:59.758Z,92.70
2018-12-16T10:41:03.620Z,93.43
2018-12-16T10:44:07.211Z,93.32
2018-12-16T10:47:10.744Z,92.49
2018-12-16T10:50:14.416Z,93.17
2018-12-16T10:53:17.961Z,92.39
2018-12-16T10:56:22.883Z,92.64
2018-12-16T10:59:26.741Z,92.59
2018-12-16T11:02:36.258Z,93.03
2018-12-16T11:05:41.199Z,92.71
2018-12-16T11:08:46.728Z,93.20
2018-12-16T11:11:52.272Z,93.34
2018-12-16T11:15:00.589Z,92.95
2018-12-16T11:18:16.175Z,92.73
2018-12-16T11:21:22.740Z,92.62
2018-12-16T11:24:27.755Z,93.80
2018-12-16T11:27:34.336Z,94.14
2018-12-16T11:30:42.887Z,93.80
2018-12-16T11:33:51.458Z,94.46
2018-12-16T11:37:00.436Z,93.92
2018-12-16T11:40:09.884Z,94.66
2018-12-16T11:43:17.486Z,94.35
2018-12-16T11:46:25.829Z,95.13
2018-12-16T11:49:35.787Z,94.98
2018-12-16T11:52:45.950Z,95.26
2018-12-16T11:55:54.907Z,94.69
2018-12-16T11:59:05.615Z,94.81
2018-12-16T12:05:57.981Z,94.14
2018-12-16T12:09:01.715Z,93.82
2018-12-16T12:12:05.530Z,94.27
2018-12-16T12:15:09.228Z,94.53
2018-12-16T12:18:12.669Z,95.00
2018-12-16T12:21:16.274Z,94.24
2018-12-16T12:24:19.915Z,94.78
2018-12-16T12:27:23.500Z,95.16
2018-12-16T12:30:27.184Z,94.94
2018-12-16T12:33:30.747Z,93.67
2018-12-16T12:36:34.256Z,93.64
2018-12-16T12:39:37.862Z,94.93
2018-12-16T12:42:41.777Z,95.00
2018-12-16T12:45:45.437Z,93.81
2018-12-16T12:48:48.973Z,94.62
2018-12-16T12:51:52.548Z,94.96
2018-12-16T12:54:56.224Z,95.67
2018-12-16T12:58:00.146Z,94.74
2018-12-16T13:01:03.678Z,94.99
2018-12-16T13:04:07.278Z,95.64
2018-12-16T13:07:10.709Z,95.31
2018-12-16T13:10:14.334Z,95.64
2018-12-16T13:13:19.107Z,94.41
2018-12-16T13:16:22.770Z,95.14
2018-12-16T13:19:26.497Z,95.60
2018-12-16T13:22:30.133Z,94.13
2018-12-16T13:25:45.147Z,93.81
2018-12-16T13:28:49.256Z,94.35
2018-12-16T13:31:53.938Z,94.73
2018-12-16T13:34:57.563Z,95.84
2018-12-16T13:38:01.280Z,95.75
2018-12-16T13:41:05.184Z,95.47
2018-12-16T13:44:09.053Z,95.41
2018-12-16T13:47:12.415Z,95.95
2018-12-16T13:50:17.999Z,95.06
2018-12-16T13:53:21.440Z,95.00
2018-12-16T13:56:25.057Z,95.98
2018-12-16T13:59:28.811Z,97.51
2018-12-16T14:02:32.401Z,97.51
2018-12-16T14:05:36.028Z,97.17
2018-12-16T14:08:39.646Z,97.20
2018-12-16T14:11:45.097Z,97.29
2018-12-16T14:14:48.702Z,97.16
2018-12-16T14:17:52.544Z,97.08
2018-12-16T14:20:56.161Z,96.70
2018-12-16T14:24:00.813Z,97.97
2018-12-16T14:27:04.433Z,97.10
2018-12-16T14:30:10.932Z,96.92
2018-12-16T14:33:14.461Z,97.60
2018-12-16T14:36:18.845Z,98.05
2018-12-16T14:39:23.955Z,96.85
2018-12-16T14:42:27.598Z,97.49
2018-12-16T14:45:36.776Z,97.65
2018-12-16T14:48:41.423Z,97.58
2018-12-16T14:51:45.005Z,98.36
2018-12-16T14:54:48.644Z,97.35
2018-12-16T14:57:52.663Z,99.08
2018-12-16T15:00:56.258Z,99.48
2018-12-16T15:03:59.901Z,99.28
2018-12-16T15:07:03.528Z,99.89
2018-12-16T15:10:10.642Z,98.97
2018-12-16T15:13:14.117Z,98.91
2018-12-16T15:16:17.571Z,98.13
2018-12-16T15:19:21.155Z,99.60
2018-12-16T15:22:24.771Z,99.44
2018-12-16T15:25:28.426Z,99.32
2018-12-16T15:28:32.013Z,100.00
2018-12-16T15:31:35.623Z,100.00
2018-12-16T15:34:39.266Z,100.00
2018-12-16T15:37:42.797Z,100.00
2018-12-16T15:40:46.566Z,100.00
2018-12-16T15:43:50.316Z,100.00
2018-12-16T15:46:54.516Z,100.00
2018-12-16T15:49:58.201Z,100.00
2018-12-16T15:53:01.782Z,100.00
2018-12-16T15:56:09.320Z,100.00
2018-12-16T15:59:09.291Z,100.00
2018-12-16T16:02:12.857Z,100.00
2018-12-16T16:05:16.333Z,100.00
2018-12-16T16:08:20.127Z,100.00
2018-12-16T16:11:23.637Z,100.00
2018-12-16T16:14:27.077Z,100.00
2018-12-16T16:17:30.682Z,100.00
2018-12-16T16:20:34.240Z,100.00
2018-12-16T16:23:38.038Z,100.00
2018-12-16T16:26:41.540Z,100.00
2018-12-16T16:29:45.880Z,100.00
2018-12-16T16:32:49.525Z,100.00
2018-12-16T16:35:54.002Z,100.00
2018-12-16T16:38:58.023Z,100.00
2018-12-16T16:42:01.831Z,100.00
2018-12-16T16:45:06.582Z,100.00
2018-12-16T16:48:10.268Z,100.00
2018-12-16T16:51:13.870Z,100.00
2018-12-16T16:54:17.557Z,100.00
2018-12-16T16:57:22.390Z,100.00
2018-12-16T17:00:26.139Z,100.00
2018-12-16T17:03:30.241Z,100.00
2018-12-16T17:06:34.054Z,100.00
2018-12-16T17:09:39.618Z,100.00
2018-12-16T17:12:43.147Z,100.00
2018-12-16T17:15:46.605Z,100.00
2018-12-16T17:18:50.213Z,100.00
2018-12-16T17:21:53.981Z,100.00
2018-12-16T17:24:57.456Z,100.00
2018-12-16T17:28:00.992Z,100.00
2018-12-16T17:31:04.414Z,100.00
2018-12-16T17:34:08.065Z,100.00
2018-12-16T17:37:12.852Z,100.00
2018-12-16T17:40:16.498Z,100.00
2018-12-16T17:43:20.112Z,100.00
2018-12-16T17:46:23.811Z,100.00
2018-12-16T17:49:27.346Z,100.00
2018-12-16T17:52:31.061Z,100.00
2018-12-16T17:55:34.600Z,100.00
2018-12-16T17:58:38.165Z,100.00
2018-12-16T18:01:41.669Z,100.00
2018-12-16T18:04:45.304Z,100.00
2018-12-16T18:07:48.948Z,100.00
2018-12-16T18:10:53.545Z,100.00
2018-12-16T18:13:57.218Z,100.00
2018-12-16T18:17:00.982Z,100.00
2018-12-16T18:20:05.790Z,100.00
2018-12-16T18:23:09.347Z,100.00
2018-12-16T18:26:12.920Z,100.00
2018-12-16T18:29:16.809Z,100.00
2018-12-16T18:32:20.665Z,100.00
2018-12-16T18:35:24.228Z,100.00
2018-12-16T18:38:27.931Z,100.00
2018-12-16T18:41:31.475Z,100.00
2018-12-16T18:44:35.145Z,100.00
2018-12-16T18:47:38.747Z,100.00
2018-12-16T18:50:42.425Z,100.00
2018-12-16T18:53:45.980Z,100.00
2018-12-16T18:56:51.300Z,100.00
2018-12-16T18:59:53.333Z,100.00
2018-12-16T19:02:57.011Z,100.00
2018-12-16T19:06:00.737Z,100.00
2018-12-16T19:09:05.307Z,100.00
2018-12-16T19:12:09.038Z,100.00
2018-12-16T19:15:12.676Z,100.00
2018-12-16T19:18:16.259Z,100.00
2018-12-16T19:21:19.884Z,100.00
2018-12-16T19:24:23.722Z,100.00
2018-12-16T19:27:27.266Z,100.00
2018-12-16T19:30:30.895Z,100.00
2018-12-16T19:33:34.748Z,100.00
2018-12-16T19:36:38.184Z,100.00
2018-12-16T19:39:41.960Z,100.00
2018-12-16T19:42:45.398Z,100.00
2018-12-16T19:45:49.029Z,100.00
2018-12-16T19:48:52.510Z,100.00
2018-12-16T19:51:56.129Z,100.00
2018-12-16T19:54:59.769Z,100.00
2018-12-16T19:58:03.218Z,100.00
2018-12-16T20:01:07.003Z,100.00
2018-12-16T20:04:15.625Z,100.00
2018-12-16T20:07:20.240Z,100.00
2018-12-16T20:10:23.868Z,100.00
2018-12-16T20:13:27.446Z,100.00
2018-12-16T20:16:31.108Z,100.00
2018-12-16T20:19:34.828Z,100.00
2018-12-16T20:22:38.602Z,100.00
2018-12-16T20:25:42.185Z,100.00
2018-12-16T20:28:45.621Z,100.00
2018-12-16T20:31:49.172Z,100.00
2018-12-16T20:34:53.686Z,100.00
2018-12-16T20:37:57.325Z,100.00
2018-12-16T20:41:00.875Z,100.00
2018-12-16T20:44:04.419Z,100.00
2018-12-16T20:47:08.017Z,100.00
2018-12-16T20:50:11.521Z,100.00
2018-12-16T20:53:15.227Z,100.00
2018-12-16T20:56:18.846Z,100.00
2018-12-16T20:59:23.304Z,100.00
2018-12-16T21:02:26.831Z,100.00
2018-12-16T21:05:30.409Z,100.00
2018-12-16T21:08:34.109Z,100.00
2018-12-16T21:11:42.944Z,100.00
2018-12-16T21:14:51.877Z,100.00
2018-12-16T21:18:00.724Z,100.00
2018-12-16T21:21:04.382Z,100.00
2018-12-16T21:24:07.920Z,100.00
2018-12-16T21:27:11.398Z,100.00
2018-12-16T21:30:14.872Z,100.00
2018-12-16T21:33:18.761Z,100.00
2018-12-16T21:36:22.266Z,100.00
2018-12-16T21:39:25.876Z,100.00
2018-12-16T21:42:29.447Z,100.00
2018-12-16T21:45:34.380Z,100.00
2018-12-16T21:48:38.175Z,100.00
2018-12-16T21:51:41.870Z,100.00
2018-12-16T21:54:45.449Z,100.00
2018-12-16T21:57:49.019Z,100.00
2018-12-16T22:00:52.851Z,100.00
2018-12-16T22:03:56.536Z,100.00
2018-12-16T22:07:00.103Z,100.00
2018-12-16T22:10:03.819Z,100.00
2018-12-16T22:13:07.414Z,100.00
2018-12-16T22:16:11.005Z,100.00
2018-12-16T22:19:14.604Z,100.00
2018-12-16T22:22:18.188Z,100.00
2018-12-16T22:25:21.838Z,100.00
2018-12-16T22:28:25.431Z,100.00
2018-12-16T22:31:29.051Z,100.00
2018-12-16T22:34:32.750Z,100.00
2018-12-16T22:37:36.416Z,100.00
2018-12-16T22:40:40.685Z,100.00
2018-12-16T22:43:43.970Z,100.00
2018-12-16T22:46:47.769Z,100.00
2018-12-16T22:49:51.293Z,100.00
2018-12-16T22:52:54.856Z,100.00
2018-12-16T22:55:58.556Z,100.00
2018-12-16T22:59:02.166Z,100.00
2018-12-16T23:02:05.757Z,100.00
2018-12-16T23:05:09.308Z,100.00
2018-12-16T23:08:12.767Z,100.00
2018-12-16T23:11:16.465Z,100.00
2018-12-16T23:14:20.109Z,100.00
2018-12-16T23:17:23.742Z,100.00
2018-12-16T23:20:29.499Z,100.00
2018-12-16T23:23:33.010Z,100.00
2018-12-16T23:26:36.836Z,100.00
2018-12-16T23:29:40.338Z,100.00
2018-12-16T23:32:43.854Z,100.00
2018-12-16T23:35:48.687Z,100.00
2018-12-16T23:38:52.192Z,100.00
2018-12-16T23:41:55.754Z,100.00
2018-12-16T23:44:59.203Z,100.00
2018-12-16T23:48:02.752Z,100.00
2018-12-16T23:51:06.335Z,100.00
2018-12-16T23:54:10.064Z,100.00
2018-12-16T23:57:15.807Z,100.00
